sensor_id;sensor_type;location;lat;lon;timestamp;temperature;humidity
25342;DHT22;13298;48.792;9.154;2024-03-23T00:56:00;9.80;99.90
25342;DHT22;13298;48.792;9.154;2024-03-23T00:58:26;9.90;99.90
25342;DHT22;13298;48.792;9.154;2024-03-23T01:00:52;10.00;99.90
25342;DHT22;13298;48.792;9.154;2024-03-23T01:03:17;10.10;99.90
25342;DHT22;13298;48.792;9.154;2024-03-23T01:05:43;10.20;99.90
25342;DHT22;13298;48.792;9.154;2024-03-23T01:08:09;10.40;99.90
25342;DHT22;13298;48.792;9.154;2024-03-23T01:10:34;10.50;99.90
25342;DHT22;13298;48.792;9.154;2024-03-23T01:13:00;10.70;99.90
25342;DHT22;13298;48.792;9.154;2024-03-23T01:15:26;10.80;99.90
25342;DHT22;13298;48.792;9.154;2024-03-23T01:17:51;10.90;99.90
25342;DHT22;13298;48.792;9.154;2024-03-23T01:20:17;11.00;99.90
25342;DHT22;13298;48.792;9.154;2024-03-23T01:22:43;11.00;99.90
25342;DHT22;13298;48.792;9.154;2024-03-23T01:25:09;10.90;99.90
25342;DHT22;13298;48.792;9.154;2024-03-23T01:27:34;10.90;99.90
25342;DHT22;13298;48.792;9.154;2024-03-23T01:30:00;10.90;99.90
25342;DHT22;13298;48.792;9.154;2024-03-23T01:32:26;10.90;99.90
25342;DHT22;13298;48.792;9.154;2024-03-23T01:34:51;10.90;99.90
25342;DHT22;13298;48.792;9.154;2024-03-23T01:37:17;11.00;99.90
25342;DHT22;13298;48.792;9.154;2024-03-23T01:39:43;11.00;99.90
25342;DHT22;13298;48.792;9.154;2024-03-23T01:42:08;11.00;99.90
25342;DHT22;13298;48.792;9.154;2024-03-23T01:44:34;11.00;99.90
25342;DHT22;13298;48.792;9.154;2024-03-23T01:47:00;11.00;99.90
25342;DHT22;13298;48.792;9.154;2024-03-23T01:49:26;11.00;99.90
25342;DHT22;13298;48.792;9.154;2024-03-23T01:51:51;11.00;99.90
25342;DHT22;13298;48.792;9.154;2024-03-23T01:54:17;10.90;99.90
25342;DHT22;13298;48.792;9.154;2024-03-23T01:56:44;10.90;99.90
25342;DHT22;13298;48.792;9.154;2024-03-23T01:59:09;10.90;99.90
25342;DHT22;13298;48.792;9.154;2024-03-23T02:01:35;10.80;99.90
25342;DHT22;13298;48.792;9.154;2024-03-23T02:04:01;10.80;99.90
25342;DHT22;13298;48.792;9.154;2024-03-23T02:06:27;10.70;99.90
25342;DHT22;13298;48.792;9.154;2024-03-23T02:08:54;10.70;99.90
25342;DHT22;13298;48.792;9.154;2024-03-23T02:11:20;10.60;99.90
25342;DHT22;13298;48.792;9.154;2024-03-23T02:13:46;10.60;99.90
25342;DHT22;13298;48.792;9.154;2024-03-23T02:16:11;10.60;99.90
25342;DHT22;13298;48.792;9.154;2024-03-23T02:18:38;10.50;99.90
25342;DHT22;13298;48.792;9.154;2024-03-23T02:21:04;10.50;99.90
25342;DHT22;13298;48.792;9.154;2024-03-23T02:23:30;10.40;99.90
25342;DHT22;13298;48.792;9.154;2024-03-23T02:25:55;10.40;99.90
25342;DHT22;13298;48.792;9.154;2024-03-23T02:28:21;10.30;99.90
25342;DHT22;13298;48.792;9.154;2024-03-23T02:30:49;10.30;99.90
25342;DHT22;13298;48.792;9.154;2024-03-23T02:33:15;10.30;99.90
25342;DHT22;13298;48.792;9.154;2024-03-23T02:35:40;10.30;99.90
25342;DHT22;13298;48.792;9.154;2024-03-23T02:38:06;10.30;99.90
25342;DHT22;13298;48.792;9.154;2024-03-23T02:40:32;10.30;99.90
25342;DHT22;13298;48.792;9.154;2024-03-23T02:42:58;10.20;99.90
25342;DHT22;13298;48.792;9.154;2024-03-23T02:45:23;10.20;99.90
25342;DHT22;13298;48.792;9.154;2024-03-23T02:47:49;10.20;99.90
25342;DHT22;13298;48.792;9.154;2024-03-23T02:50:19;10.20;99.90
25342;DHT22;13298;48.792;9.154;2024-03-23T02:52:44;10.20;99.90
25342;DHT22;13298;48.792;9.154;2024-03-23T02:55:10;10.10;99.90
25342;DHT22;13298;48.792;9.154;2024-03-23T02:57:36;10.10;99.90
25342;DHT22;13298;48.792;9.154;2024-03-23T03:00:02;10.20;99.90
25342;DHT22;13298;48.792;9.154;2024-03-23T03:02:28;10.20;99.90
25342;DHT22;13298;48.792;9.154;2024-03-23T03:04:54;10.20;99.90
25342;DHT22;13298;48.792;9.154;2024-03-23T03:07:20;10.20;99.90
25342;DHT22;13298;48.792;9.154;2024-03-23T03:09:45;10.20;99.90
25342;DHT22;13298;48.792;9.154;2024-03-23T03:12:11;10.20;99.90
25342;DHT22;13298;48.792;9.154;2024-03-23T03:14:37;10.20;99.90
25342;DHT22;13298;48.792;9.154;2024-03-23T03:17:03;10.10;99.90
25342;DHT22;13298;48.792;9.154;2024-03-23T03:19:29;10.00;99.90
25342;DHT22;13298;48.792;9.154;2024-03-23T03:21:55;9.90;99.90
25342;DHT22;13298;48.792;9.154;2024-03-23T03:24:21;9.90;99.90
25342;DHT22;13298;48.792;9.154;2024-03-23T03:26:47;9.80;99.90
25342;DHT22;13298;48.792;9.154;2024-03-23T03:29:13;9.80;99.90
25342;DHT22;13298;48.792;9.154;2024-03-23T03:31:42;9.70;99.90
25342;DHT22;13298;48.792;9.154;2024-03-23T03:34:08;9.70;99.90
25342;DHT22;13298;48.792;9.154;2024-03-23T03:36:34;9.70;99.90
25342;DHT22;13298;48.792;9.154;2024-03-23T03:39:00;9.60;99.90
25342;DHT22;13298;48.792;9.154;2024-03-23T03:41:25;9.60;99.90
25342;DHT22;13298;48.792;9.154;2024-03-23T03:43:51;9.50;99.90
25342;DHT22;13298;48.792;9.154;2024-03-23T03:46:17;9.50;99.90
25342;DHT22;13298;48.792;9.154;2024-03-23T03:48:43;9.50;99.90
25342;DHT22;13298;48.792;9.154;2024-03-23T03:51:10;9.50;99.90
25342;DHT22;13298;48.792;9.154;2024-03-23T03:53:36;9.40;99.90
25342;DHT22;13298;48.792;9.154;2024-03-23T03:56:02;9.50;99.90
25342;DHT22;13298;48.792;9.154;2024-03-23T03:58:28;9.40;99.90
25342;DHT22;13298;48.792;9.154;2024-03-23T04:00:54;9.50;99.90
25342;DHT22;13298;48.792;9.154;2024-03-23T04:03:20;9.50;99.90
25342;DHT22;13298;48.792;9.154;2024-03-23T04:05:55;9.50;99.90
25342;DHT22;13298;48.792;9.154;2024-03-23T04:08:21;9.50;99.90
25342;DHT22;13298;48.792;9.154;2024-03-23T04:10:47;9.60;99.90
25342;DHT22;13298;48.792;9.154;2024-03-23T04:13:13;9.60;99.90
25342;DHT22;13298;48.792;9.154;2024-03-23T04:15:40;9.60;99.90
25342;DHT22;13298;48.792;9.154;2024-03-23T04:18:06;9.70;99.90
25342;DHT22;13298;48.792;9.154;2024-03-23T04:20:32;9.80;99.90
25342;DHT22;13298;48.792;9.154;2024-03-23T04:23:00;9.90;99.90
25342;DHT22;13298;48.792;9.154;2024-03-23T04:25:26;10.00;99.90
25342;DHT22;13298;48.792;9.154;2024-03-23T04:27:52;10.20;99.90
25342;DHT22;13298;48.792;9.154;2024-03-23T04:30:18;10.30;99.90
25342;DHT22;13298;48.792;9.154;2024-03-23T04:32:44;10.40;99.90
25342;DHT22;13298;48.792;9.154;2024-03-23T04:35:10;10.50;99.90
25342;DHT22;13298;48.792;9.154;2024-03-23T04:37:37;10.50;99.90
25342;DHT22;13298;48.792;9.154;2024-03-23T04:40:03;10.30;99.90
25342;DHT22;13298;48.792;9.154;2024-03-23T04:42:30;9.90;99.90
25342;DHT22;13298;48.792;9.154;2024-03-23T04:44:56;9.60;99.90
25342;DHT22;13298;48.792;9.154;2024-03-23T04:47:22;9.30;99.90
25342;DHT22;13298;48.792;9.154;2024-03-23T04:49:48;9.20;99.90
25342;DHT22;13298;48.792;9.154;2024-03-23T04:52:14;9.10;99.90
25342;DHT22;13298;48.792;9.154;2024-03-23T04:54:40;9.10;99.90
25342;DHT22;13298;48.792;9.154;2024-03-23T04:57:06;9.10;99.90
25342;DHT22;13298;48.792;9.154;2024-03-23T04:59:32;9.10;99.90
25342;DHT22;13298;48.792;9.154;2024-03-23T05:01:58;9.10;99.90
25342;DHT22;13298;48.792;9.154;2024-03-23T05:04:25;9.00;99.90
25342;DHT22;13298;48.792;9.154;2024-03-23T05:06:51;9.10;99.90
25342;DHT22;13298;48.792;9.154;2024-03-23T05:09:16;9.10;99.90
25342;DHT22;13298;48.792;9.154;2024-03-23T05:11:42;9.10;99.90
25342;DHT22;13298;48.792;9.154;2024-03-23T05:14:08;9.10;99.90
25342;DHT22;13298;48.792;9.154;2024-03-23T05:16:33;9.10;99.90
25342;DHT22;13298;48.792;9.154;2024-03-23T05:18:59;9.10;99.90
25342;DHT22;13298;48.792;9.154;2024-03-23T05:21:26;9.00;99.90
25342;DHT22;13298;48.792;9.154;2024-03-23T05:23:54;9.00;99.90
25342;DHT22;13298;48.792;9.154;2024-03-23T05:26:20;9.00;99.90
25342;DHT22;13298;48.792;9.154;2024-03-23T05:28:47;9.00;99.90
25342;DHT22;13298;48.792;9.154;2024-03-23T05:31:12;9.00;99.90
25342;DHT22;13298;48.792;9.154;2024-03-23T05:33:38;9.00;99.90
25342;DHT22;13298;48.792;9.154;2024-03-23T05:36:04;9.00;99.90
25342;DHT22;13298;48.792;9.154;2024-03-23T05:38:30;8.90;99.90
25342;DHT22;13298;48.792;9.154;2024-03-23T05:41:00;8.90;99.90
25342;DHT22;13298;48.792;9.154;2024-03-23T05:43:26;8.80;99.90
25342;DHT22;13298;48.792;9.154;2024-03-23T05:45:59;8.80;99.90
25342;DHT22;13298;48.792;9.154;2024-03-23T05:48:26;8.70;99.90
25342;DHT22;13298;48.792;9.154;2024-03-23T05:50:52;8.70;99.90
25342;DHT22;13298;48.792;9.154;2024-03-23T05:53:18;8.70;99.90
25342;DHT22;13298;48.792;9.154;2024-03-23T05:55:46;8.60;99.90
25342;DHT22;13298;48.792;9.154;2024-03-23T05:58:15;8.60;99.90
25342;DHT22;13298;48.792;9.154;2024-03-23T06:00:42;8.50;99.90
25342;DHT22;13298;48.792;9.154;2024-03-23T06:03:08;8.40;99.90
25342;DHT22;13298;48.792;9.154;2024-03-23T06:05:35;8.30;99.90
25342;DHT22;13298;48.792;9.154;2024-03-23T06:08:01;8.20;99.90
25342;DHT22;13298;48.792;9.154;2024-03-23T06:10:28;8.20;99.90
25342;DHT22;13298;48.792;9.154;2024-03-23T06:12:53;8.10;99.90
25342;DHT22;13298;48.792;9.154;2024-03-23T06:15:19;8.00;99.90
25342;DHT22;13298;48.792;9.154;2024-03-23T06:17:45;8.00;99.90
25342;DHT22;13298;48.792;9.154;2024-03-23T06:20:12;8.00;99.90
25342;DHT22;13298;48.792;9.154;2024-03-23T06:22:39;8.00;99.90
25342;DHT22;13298;48.792;9.154;2024-03-23T06:25:05;8.00;99.90
25342;DHT22;13298;48.792;9.154;2024-03-23T06:27:32;7.90;99.90
25342;DHT22;13298;48.792;9.154;2024-03-23T06:29:58;7.90;99.90
25342;DHT22;13298;48.792;9.154;2024-03-23T06:32:24;8.00;99.90
25342;DHT22;13298;48.792;9.154;2024-03-23T06:34:50;8.00;99.90
25342;DHT22;13298;48.792;9.154;2024-03-23T06:37:16;8.10;99.90
25342;DHT22;13298;48.792;9.154;2024-03-23T06:39:42;8.10;99.90
25342;DHT22;13298;48.792;9.154;2024-03-23T06:42:07;8.10;99.90
25342;DHT22;13298;48.792;9.154;2024-03-23T06:44:33;8.10;99.90
25342;DHT22;13298;48.792;9.154;2024-03-23T06:46:59;8.10;99.90
25342;DHT22;13298;48.792;9.154;2024-03-23T06:49:25;8.20;99.90
25342;DHT22;13298;48.792;9.154;2024-03-23T06:51:51;8.20;99.90
25342;DHT22;13298;48.792;9.154;2024-03-23T06:54:17;8.30;99.90
25342;DHT22;13298;48.792;9.154;2024-03-23T06:57:02;8.30;99.90
25342;DHT22;13298;48.792;9.154;2024-03-23T06:59:28;8.30;99.90
25342;DHT22;13298;48.792;9.154;2024-03-23T07:01:54;8.30;99.90
25342;DHT22;13298;48.792;9.154;2024-03-23T07:04:19;8.30;99.90
25342;DHT22;13298;48.792;9.154;2024-03-23T07:06:45;8.30;99.90
25342;DHT22;13298;48.792;9.154;2024-03-23T07:09:11;8.30;99.90
25342;DHT22;13298;48.792;9.154;2024-03-23T07:11:38;8.30;99.90
25342;DHT22;13298;48.792;9.154;2024-03-23T07:14:03;8.40;99.90
25342;DHT22;13298;48.792;9.154;2024-03-23T07:16:29;8.40;99.90
25342;DHT22;13298;48.792;9.154;2024-03-23T07:18:55;8.40;99.90
25342;DHT22;13298;48.792;9.154;2024-03-23T07:21:21;8.50;99.90
25342;DHT22;13298;48.792;9.154;2024-03-23T07:23:47;8.60;99.90
25342;DHT22;13298;48.792;9.154;2024-03-23T07:26:13;8.80;99.90
25342;DHT22;13298;48.792;9.154;2024-03-23T07:28:39;9.10;99.90
25342;DHT22;13298;48.792;9.154;2024-03-23T07:31:11;9.40;99.90
25342;DHT22;13298;48.792;9.154;2024-03-23T07:33:41;9.60;99.90
25342;DHT22;13298;48.792;9.154;2024-03-23T07:36:07;9.70;99.90
25342;DHT22;13298;48.792;9.154;2024-03-23T07:38:33;9.80;99.90
25342;DHT22;13298;48.792;9.154;2024-03-23T07:41:09;9.60;99.90
25342;DHT22;13298;48.792;9.154;2024-03-23T07:43:43;9.40;99.90
25342;DHT22;13298;48.792;9.154;2024-03-23T07:46:09;9.20;99.90
25342;DHT22;13298;48.792;9.154;2024-03-23T07:48:35;8.90;99.90
25342;DHT22;13298;48.792;9.154;2024-03-23T07:53:27;8.50;99.90
25342;DHT22;13298;48.792;9.154;2024-03-23T07:55:55;8.20;99.90
25342;DHT22;13298;48.792;9.154;2024-03-23T07:58:24;7.90;99.90
25342;DHT22;13298;48.792;9.154;2024-03-23T08:00:52;7.70;99.90
25342;DHT22;13298;48.792;9.154;2024-03-23T08:03:18;7.60;99.90
25342;DHT22;13298;48.792;9.154;2024-03-23T08:05:44;7.50;99.90
25342;DHT22;13298;48.792;9.154;2024-03-23T08:08:10;7.40;99.90
25342;DHT22;13298;48.792;9.154;2024-03-23T08:10:36;7.30;99.90
25342;DHT22;13298;48.792;9.154;2024-03-23T08:13:03;7.30;99.90
25342;DHT22;13298;48.792;9.154;2024-03-23T08:15:32;7.30;99.90
25342;DHT22;13298;48.792;9.154;2024-03-23T08:18:00;7.30;99.90
25342;DHT22;13298;48.792;9.154;2024-03-23T08:20:26;7.40;99.90
25342;DHT22;13298;48.792;9.154;2024-03-23T08:22:52;7.50;99.90
25342;DHT22;13298;48.792;9.154;2024-03-23T08:25:18;7.50;99.90
25342;DHT22;13298;48.792;9.154;2024-03-23T08:27:47;7.60;99.90
25342;DHT22;13298;48.792;9.154;2024-03-23T08:30:12;7.60;99.90
25342;DHT22;13298;48.792;9.154;2024-03-23T08:32:38;7.70;99.90
25342;DHT22;13298;48.792;9.154;2024-03-23T08:35:04;7.60;99.90
25342;DHT22;13298;48.792;9.154;2024-03-23T08:37:30;7.50;99.90
25342;DHT22;13298;48.792;9.154;2024-03-23T08:39:56;7.50;99.90
25342;DHT22;13298;48.792;9.154;2024-03-23T08:42:21;7.60;99.90
25342;DHT22;13298;48.792;9.154;2024-03-23T08:44:47;7.50;99.90
25342;DHT22;13298;48.792;9.154;2024-03-23T08:47:15;7.50;99.90
25342;DHT22;13298;48.792;9.154;2024-03-23T08:49:41;7.60;99.90
25342;DHT22;13298;48.792;9.154;2024-03-23T08:52:07;7.70;99.90
25342;DHT22;13298;48.792;9.154;2024-03-23T08:54:33;7.90;99.90
25342;DHT22;13298;48.792;9.154;2024-03-23T08:56:59;8.10;99.90
25342;DHT22;13298;48.792;9.154;2024-03-23T08:59:25;8.30;99.90
25342;DHT22;13298;48.792;9.154;2024-03-23T09:01:52;8.50;99.90
25342;DHT22;13298;48.792;9.154;2024-03-23T09:04:18;8.70;99.90
25342;DHT22;13298;48.792;9.154;2024-03-23T09:06:43;8.80;99.90
25342;DHT22;13298;48.792;9.154;2024-03-23T09:09:09;8.80;99.90
25342;DHT22;13298;48.792;9.154;2024-03-23T09:11:35;8.70;99.90
25342;DHT22;13298;48.792;9.154;2024-03-23T09:14:00;8.50;99.90
25342;DHT22;13298;48.792;9.154;2024-03-23T09:16:26;8.40;99.90
25342;DHT22;13298;48.792;9.154;2024-03-23T09:18:52;8.30;99.90
25342;DHT22;13298;48.792;9.154;2024-03-23T09:21:18;8.30;99.90
25342;DHT22;13298;48.792;9.154;2024-03-23T09:23:44;8.30;99.90
25342;DHT22;13298;48.792;9.154;2024-03-23T09:26:11;8.40;99.90
25342;DHT22;13298;48.792;9.154;2024-03-23T09:28:37;8.50;99.90
25342;DHT22;13298;48.792;9.154;2024-03-23T09:31:06;8.70;99.90
25342;DHT22;13298;48.792;9.154;2024-03-23T09:33:34;9.00;99.90
25342;DHT22;13298;48.792;9.154;2024-03-23T09:36:03;9.30;99.90
25342;DHT22;13298;48.792;9.154;2024-03-23T09:38:29;9.70;99.90
25342;DHT22;13298;48.792;9.154;2024-03-23T09:40:56;10.00;99.90
25342;DHT22;13298;48.792;9.154;2024-03-23T09:43:22;10.00;99.90
25342;DHT22;13298;48.792;9.154;2024-03-23T09:45:49;10.00;99.90
25342;DHT22;13298;48.792;9.154;2024-03-23T09:48:15;10.00;99.90
25342;DHT22;13298;48.792;9.154;2024-03-23T09:50:42;10.00;99.90
25342;DHT22;13298;48.792;9.154;2024-03-23T09:53:13;9.80;99.90
25342;DHT22;13298;48.792;9.154;2024-03-23T09:55:40;9.80;99.90
25342;DHT22;13298;48.792;9.154;2024-03-23T09:58:07;9.90;99.90
25342;DHT22;13298;48.792;9.154;2024-03-23T10:00:34;10.00;99.90
25342;DHT22;13298;48.792;9.154;2024-03-23T10:03:00;10.20;99.90
25342;DHT22;13298;48.792;9.154;2024-03-23T10:05:30;10.40;99.90
25342;DHT22;13298;48.792;9.154;2024-03-23T10:08:16;10.50;99.90
25342;DHT22;13298;48.792;9.154;2024-03-23T10:10:44;10.60;99.90
25342;DHT22;13298;48.792;9.154;2024-03-23T10:13:11;10.80;99.90
25342;DHT22;13298;48.792;9.154;2024-03-23T10:15:55;10.90;99.90
25342;DHT22;13298;48.792;9.154;2024-03-23T10:18:22;10.60;99.90
25342;DHT22;13298;48.792;9.154;2024-03-23T10:21:06;10.50;99.90
25342;DHT22;13298;48.792;9.154;2024-03-23T10:23:34;10.50;99.90
25342;DHT22;13298;48.792;9.154;2024-03-23T10:28:52;10.90;99.90
25342;DHT22;13298;48.792;9.154;2024-03-23T10:31:18;11.10;99.90
25342;DHT22;13298;48.792;9.154;2024-03-23T10:33:45;11.10;99.90
25342;DHT22;13298;48.792;9.154;2024-03-23T10:36:12;11.00;99.90
25342;DHT22;13298;48.792;9.154;2024-03-23T10:38:40;11.00;99.90
25342;DHT22;13298;48.792;9.154;2024-03-23T10:41:08;10.90;99.90
25342;DHT22;13298;48.792;9.154;2024-03-23T10:43:36;10.80;99.90
25342;DHT22;13298;48.792;9.154;2024-03-23T10:46:03;10.70;99.90
25342;DHT22;13298;48.792;9.154;2024-03-23T10:48:29;10.50;99.90
25342;DHT22;13298;48.792;9.154;2024-03-23T10:50:55;10.10;99.90
25342;DHT22;13298;48.792;9.154;2024-03-23T10:53:33;9.90;99.90
25342;DHT22;13298;48.792;9.154;2024-03-23T10:55:59;9.50;99.90
25342;DHT22;13298;48.792;9.154;2024-03-23T10:58:40;8.90;99.90
25342;DHT22;13298;48.792;9.154;2024-03-23T11:01:11;8.00;99.90
25342;DHT22;13298;48.792;9.154;2024-03-23T11:03:38;7.30;99.90
25342;DHT22;13298;48.792;9.154;2024-03-23T11:06:06;6.90;99.90
25342;DHT22;13298;48.792;9.154;2024-03-23T11:08:40;6.60;99.90
25342;DHT22;13298;48.792;9.154;2024-03-23T11:11:20;6.20;99.90
25342;DHT22;13298;48.792;9.154;2024-03-23T11:13:51;6.10;99.90
25342;DHT22;13298;48.792;9.154;2024-03-23T11:16:23;6.30;99.90
25342;DHT22;13298;48.792;9.154;2024-03-23T11:18:50;6.40;99.90
25342;DHT22;13298;48.792;9.154;2024-03-23T11:21:54;6.60;99.90
25342;DHT22;13298;48.792;9.154;2024-03-23T11:24:21;6.60;99.90
25342;DHT22;13298;48.792;9.154;2024-03-23T11:26:48;6.70;99.90
25342;DHT22;13298;48.792;9.154;2024-03-23T11:29:16;6.70;99.90
25342;DHT22;13298;48.792;9.154;2024-03-23T11:31:48;6.80;99.90
25342;DHT22;13298;48.792;9.154;2024-03-23T11:34:18;6.90;99.90
25342;DHT22;13298;48.792;9.154;2024-03-23T11:36:45;7.20;99.90
25342;DHT22;13298;48.792;9.154;2024-03-23T11:41:47;7.60;99.90
25342;DHT22;13298;48.792;9.154;2024-03-23T11:44:20;8.00;99.90
25342;DHT22;13298;48.792;9.154;2024-03-23T11:46:50;8.30;99.90
25342;DHT22;13298;48.792;9.154;2024-03-23T11:51:52;9.00;99.90
25342;DHT22;13298;48.792;9.154;2024-03-23T11:54:23;9.20;99.90
25342;DHT22;13298;48.792;9.154;2024-03-23T11:57:04;9.40;99.90
25342;DHT22;13298;48.792;9.154;2024-03-23T11:59:37;9.40;99.90
25342;DHT22;13298;48.792;9.154;2024-03-23T12:02:08;9.40;99.90
25342;DHT22;13298;48.792;9.154;2024-03-23T12:04:40;9.30;99.90
25342;DHT22;13298;48.792;9.154;2024-03-23T12:07:10;9.20;99.90
25342;DHT22;13298;48.792;9.154;2024-03-23T12:09:44;9.20;99.90
25342;DHT22;13298;48.792;9.154;2024-03-23T12:12:15;9.10;99.90
25342;DHT22;13298;48.792;9.154;2024-03-23T12:14:46;9.10;99.90
25342;DHT22;13298;48.792;9.154;2024-03-23T12:17:30;9.30;99.90
25342;DHT22;13298;48.792;9.154;2024-03-23T12:19:56;9.40;99.90
25342;DHT22;13298;48.792;9.154;2024-03-23T12:22:22;9.30;99.90
25342;DHT22;13298;48.792;9.154;2024-03-23T12:24:48;9.20;99.90
25342;DHT22;13298;48.792;9.154;2024-03-23T12:27:14;9.20;99.90
25342;DHT22;13298;48.792;9.154;2024-03-23T12:29:40;9.30;99.90
25342;DHT22;13298;48.792;9.154;2024-03-23T12:32:11;9.40;99.90
25342;DHT22;13298;48.792;9.154;2024-03-23T12:34:37;9.40;99.90
25342;DHT22;13298;48.792;9.154;2024-03-23T12:37:03;9.30;99.90
25342;DHT22;13298;48.792;9.154;2024-03-23T12:39:29;9.30;99.90
25342;DHT22;13298;48.792;9.154;2024-03-23T12:41:55;9.30;99.90
25342;DHT22;13298;48.792;9.154;2024-03-23T12:44:21;9.50;99.90
25342;DHT22;13298;48.792;9.154;2024-03-23T12:46:47;9.60;99.90
25342;DHT22;13298;48.792;9.154;2024-03-23T12:49:12;9.70;99.90
25342;DHT22;13298;48.792;9.154;2024-03-23T12:51:38;9.60;99.90
25342;DHT22;13298;48.792;9.154;2024-03-23T12:54:04;9.50;99.90
25342;DHT22;13298;48.792;9.154;2024-03-23T12:56:30;9.60;99.90
25342;DHT22;13298;48.792;9.154;2024-03-23T12:58:56;9.60;99.90
25342;DHT22;13298;48.792;9.154;2024-03-23T13:01:23;9.70;99.90
25342;DHT22;13298;48.792;9.154;2024-03-23T13:03:50;9.80;99.90
25342;DHT22;13298;48.792;9.154;2024-03-23T13:06:19;9.90;99.90
25342;DHT22;13298;48.792;9.154;2024-03-23T13:08:45;10.00;99.90
25342;DHT22;13298;48.792;9.154;2024-03-23T13:11:11;10.10;99.90
25342;DHT22;13298;48.792;9.154;2024-03-23T13:13:38;10.10;99.90
25342;DHT22;13298;48.792;9.154;2024-03-23T13:16:04;10.10;99.90
25342;DHT22;13298;48.792;9.154;2024-03-23T13:18:31;9.90;99.90
25342;DHT22;13298;48.792;9.154;2024-03-23T13:20:58;9.80;99.90
25342;DHT22;13298;48.792;9.154;2024-03-23T13:23:24;9.70;99.90
25342;DHT22;13298;48.792;9.154;2024-03-23T13:25:51;9.60;99.90
25342;DHT22;13298;48.792;9.154;2024-03-23T13:28:20;9.50;99.90
25342;DHT22;13298;48.792;9.154;2024-03-23T13:30:53;9.30;99.90
25342;DHT22;13298;48.792;9.154;2024-03-23T13:33:20;9.30;99.90
25342;DHT22;13298;48.792;9.154;2024-03-23T13:35:52;9.40;99.90
25342;DHT22;13298;48.792;9.154;2024-03-23T13:38:19;9.40;99.90
25342;DHT22;13298;48.792;9.154;2024-03-23T13:40:59;9.40;99.90
25342;DHT22;13298;48.792;9.154;2024-03-23T13:43:26;9.40;99.90
25342;DHT22;13298;48.792;9.154;2024-03-23T13:45:57;9.40;99.90
25342;DHT22;13298;48.792;9.154;2024-03-23T13:48:24;9.50;99.90
25342;DHT22;13298;48.792;9.154;2024-03-23T13:51:03;9.70;99.90
25342;DHT22;13298;48.792;9.154;2024-03-23T13:53:30;9.90;99.90
25342;DHT22;13298;48.792;9.154;2024-03-23T13:55:57;10.30;99.90
25342;DHT22;13298;48.792;9.154;2024-03-23T13:58:23;10.60;99.90
25342;DHT22;13298;48.792;9.154;2024-03-23T14:00:51;10.70;99.90
25342;DHT22;13298;48.792;9.154;2024-03-23T14:03:17;10.50;99.90
25342;DHT22;13298;48.792;9.154;2024-03-23T14:05:44;10.10;99.90
25342;DHT22;13298;48.792;9.154;2024-03-23T14:08:10;9.60;99.90
25342;DHT22;13298;48.792;9.154;2024-03-23T14:10:39;8.80;99.90
25342;DHT22;13298;48.792;9.154;2024-03-23T14:13:06;7.70;99.90
25342;DHT22;13298;48.792;9.154;2024-03-23T14:15:32;6.90;99.90
25342;DHT22;13298;48.792;9.154;2024-03-23T14:17:58;6.30;99.90
25342;DHT22;13298;48.792;9.154;2024-03-23T14:20:24;5.80;99.90
25342;DHT22;13298;48.792;9.154;2024-03-23T14:22:50;5.40;99.90
25342;DHT22;13298;48.792;9.154;2024-03-23T14:25:17;5.20;99.90
25342;DHT22;13298;48.792;9.154;2024-03-23T14:27:46;5.00;99.90
25342;DHT22;13298;48.792;9.154;2024-03-23T14:30:13;4.90;99.90
25342;DHT22;13298;48.792;9.154;2024-03-23T14:32:39;5.00;99.90
25342;DHT22;13298;48.792;9.154;2024-03-23T14:35:05;5.10;99.90
25342;DHT22;13298;48.792;9.154;2024-03-23T14:37:32;5.20;99.90
25342;DHT22;13298;48.792;9.154;2024-03-23T14:39:58;5.30;99.90
25342;DHT22;13298;48.792;9.154;2024-03-23T14:42:25;5.30;99.90
25342;DHT22;13298;48.792;9.154;2024-03-23T14:44:51;5.30;99.90
25342;DHT22;13298;48.792;9.154;2024-03-23T14:47:18;5.40;99.90
25342;DHT22;13298;48.792;9.154;2024-03-23T14:49:44;5.50;99.90
25342;DHT22;13298;48.792;9.154;2024-03-23T14:52:15;5.50;99.90
25342;DHT22;13298;48.792;9.154;2024-03-23T14:54:45;5.40;99.90
25342;DHT22;13298;48.792;9.154;2024-03-23T14:57:12;5.50;99.90
25342;DHT22;13298;48.792;9.154;2024-03-23T14:59:38;5.50;99.90
25342;DHT22;13298;48.792;9.154;2024-03-23T15:02:04;5.50;99.90
25342;DHT22;13298;48.792;9.154;2024-03-23T15:04:30;5.70;99.90
25342;DHT22;13298;48.792;9.154;2024-03-23T15:06:56;5.90;99.90
25342;DHT22;13298;48.792;9.154;2024-03-23T15:09:22;6.40;99.90
25342;DHT22;13298;48.792;9.154;2024-03-23T15:11:47;6.80;99.90
25342;DHT22;13298;48.792;9.154;2024-03-23T15:14:13;7.00;99.90
25342;DHT22;13298;48.792;9.154;2024-03-23T15:16:39;6.90;99.90
25342;DHT22;13298;48.792;9.154;2024-03-23T15:19:04;6.90;99.90
25342;DHT22;13298;48.792;9.154;2024-03-23T15:21:33;6.80;99.90
25342;DHT22;13298;48.792;9.154;2024-03-23T15:23:59;6.60;99.90
25342;DHT22;13298;48.792;9.154;2024-03-23T15:26:25;6.50;99.90
25342;DHT22;13298;48.792;9.154;2024-03-23T15:28:51;6.40;99.90
25342;DHT22;13298;48.792;9.154;2024-03-23T15:31:22;6.30;99.90
25342;DHT22;13298;48.792;9.154;2024-03-23T15:33:48;6.30;99.90
25342;DHT22;13298;48.792;9.154;2024-03-23T15:36:14;6.30;99.90
25342;DHT22;13298;48.792;9.154;2024-03-23T15:38:40;6.30;99.90
25342;DHT22;13298;48.792;9.154;2024-03-23T15:41:05;6.30;99.90
25342;DHT22;13298;48.792;9.154;2024-03-23T15:43:31;6.30;99.90
25342;DHT22;13298;48.792;9.154;2024-03-23T15:45:58;6.30;99.90
25342;DHT22;13298;48.792;9.154;2024-03-23T15:48:28;6.40;99.90
25342;DHT22;13298;48.792;9.154;2024-03-23T15:50:56;6.50;99.90
25342;DHT22;13298;48.792;9.154;2024-03-23T15:53:23;6.70;99.90
25342;DHT22;13298;48.792;9.154;2024-03-23T15:55:56;6.70;99.90
25342;DHT22;13298;48.792;9.154;2024-03-23T15:58:23;6.70;99.90
25342;DHT22;13298;48.792;9.154;2024-03-23T16:03:24;6.70;99.90
25342;DHT22;13298;48.792;9.154;2024-03-23T16:05:51;6.70;99.90
25342;DHT22;13298;48.792;9.154;2024-03-23T16:08:19;6.70;99.90
25342;DHT22;13298;48.792;9.154;2024-03-23T16:10:45;6.80;99.90
25342;DHT22;13298;48.792;9.154;2024-03-23T16:13:11;6.90;99.90
25342;DHT22;13298;48.792;9.154;2024-03-23T16:15:37;7.00;99.90
25342;DHT22;13298;48.792;9.154;2024-03-23T16:18:02;7.00;99.90
25342;DHT22;13298;48.792;9.154;2024-03-23T16:20:28;7.00;99.90
25342;DHT22;13298;48.792;9.154;2024-03-23T16:22:54;6.90;99.90
25342;DHT22;13298;48.792;9.154;2024-03-23T16:25:21;6.70;99.90
25342;DHT22;13298;48.792;9.154;2024-03-23T16:27:46;6.60;99.90
25342;DHT22;13298;48.792;9.154;2024-03-23T16:30:13;6.60;99.90
25342;DHT22;13298;48.792;9.154;2024-03-23T16:32:39;6.50;99.90
25342;DHT22;13298;48.792;9.154;2024-03-23T16:35:05;6.50;99.90
25342;DHT22;13298;48.792;9.154;2024-03-23T16:37:31;6.50;99.90
25342;DHT22;13298;48.792;9.154;2024-03-23T16:39:57;6.50;99.90
25342;DHT22;13298;48.792;9.154;2024-03-23T16:42:23;6.50;99.90
25342;DHT22;13298;48.792;9.154;2024-03-23T16:44:48;6.40;99.90
25342;DHT22;13298;48.792;9.154;2024-03-23T16:47:14;6.40;99.90
25342;DHT22;13298;48.792;9.154;2024-03-23T16:49:39;6.40;99.90